sensor_id;sensor_type;location;lat;lon;timestamp;P1;durP1;ratioP1;P2;durP2;ratioP2
49858;SDS011;35756;52.346;13.622;2023-07-31T00:02:11;2.40;;;1.90;;
49858;SDS011;35756;52.346;13.622;2023-07-31T00:04:37;2.60;;;2.00;;
49858;SDS011;35756;52.346;13.622;2023-07-31T00:07:02;5.10;;;2.00;;
49858;SDS011;35756;52.346;13.622;2023-07-31T00:09:29;3.33;;;1.92;;
49858;SDS011;35756;52.346;13.622;2023-07-31T00:11:54;3.05;;;1.67;;
49858;SDS011;35756;52.346;13.622;2023-07-31T00:14:19;3.45;;;2.17;;
49858;SDS011;35756;52.346;13.622;2023-07-31T00:16:44;3.50;;;1.88;;
49858;SDS011;35756;52.346;13.622;2023-07-31T00:19:10;2.58;;;1.70;;
49858;SDS011;35756;52.346;13.622;2023-07-31T00:21:35;3.15;;;1.77;;
49858;SDS011;35756;52.346;13.622;2023-07-31T00:24:00;4.13;;;2.00;;
49858;SDS011;35756;52.346;13.622;2023-07-31T00:26:26;2.08;;;1.60;;
49858;SDS011;35756;52.346;13.622;2023-07-31T00:28:51;4.00;;;1.90;;
49858;SDS011;35756;52.346;13.622;2023-07-31T00:31:16;4.80;;;2.00;;
49858;SDS011;35756;52.346;13.622;2023-07-31T00:33:41;2.90;;;1.70;;
49858;SDS011;35756;52.346;13.622;2023-07-31T00:36:07;4.07;;;2.00;;
49858;SDS011;35756;52.346;13.622;2023-07-31T00:38:32;3.13;;;1.80;;
49858;SDS011;35756;52.346;13.622;2023-07-31T00:40:57;3.60;;;1.90;;
49858;SDS011;35756;52.346;13.622;2023-07-31T00:43:23;3.80;;;2.13;;
49858;SDS011;35756;52.346;13.622;2023-07-31T00:45:49;2.70;;;1.77;;
49858;SDS011;35756;52.346;13.622;2023-07-31T00:48:14;2.58;;;1.70;;
49858;SDS011;35756;52.346;13.622;2023-07-31T00:50:40;2.70;;;1.80;;
49858;SDS011;35756;52.346;13.622;2023-07-31T00:53:05;4.28;;;1.88;;
49858;SDS011;35756;52.346;13.622;2023-07-31T00:55:30;3.78;;;2.00;;
49858;SDS011;35756;52.346;13.622;2023-07-31T00:57:56;4.00;;;2.00;;
49858;SDS011;35756;52.346;13.622;2023-07-31T01:00:21;2.75;;;1.98;;
49858;SDS011;35756;52.346;13.622;2023-07-31T01:02:47;3.65;;;2.00;;
49858;SDS011;35756;52.346;13.622;2023-07-31T01:05:13;2.47;;;1.80;;
49858;SDS011;35756;52.346;13.622;2023-07-31T01:07:49;2.38;;;1.70;;
49858;SDS011;35756;52.346;13.622;2023-07-31T01:12:46;2.28;;;1.60;;
49858;SDS011;35756;52.346;13.622;2023-07-31T01:15:13;2.72;;;1.98;;
49858;SDS011;35756;52.346;13.622;2023-07-31T01:17:40;4.70;;;2.15;;
49858;SDS011;35756;52.346;13.622;2023-07-31T01:20:10;4.38;;;2.17;;
49858;SDS011;35756;52.346;13.622;2023-07-31T01:28:34;3.45;;;2.30;;
49858;SDS011;35756;52.346;13.622;2023-07-31T01:31:06;3.47;;;2.30;;
49858;SDS011;35756;52.346;13.622;2023-07-31T01:33:32;2.33;;;1.80;;
49858;SDS011;35756;52.346;13.622;2023-07-31T01:35:58;7.15;;;2.33;;
49858;SDS011;35756;52.346;13.622;2023-07-31T01:38:23;4.20;;;2.40;;
49858;SDS011;35756;52.346;13.622;2023-07-31T01:40:52;5.93;;;2.10;;
49858;SDS011;35756;52.346;13.622;2023-07-31T01:43:18;2.88;;;2.30;;
49858;SDS011;35756;52.346;13.622;2023-07-31T01:45:43;3.20;;;2.20;;
49858;SDS011;35756;52.346;13.622;2023-07-31T01:48:08;5.00;;;2.03;;
49858;SDS011;35756;52.346;13.622;2023-07-31T01:50:34;4.90;;;2.05;;
49858;SDS011;35756;52.346;13.622;2023-07-31T01:52:59;3.90;;;2.10;;
49858;SDS011;35756;52.346;13.622;2023-07-31T01:55:24;4.25;;;2.13;;
49858;SDS011;35756;52.346;13.622;2023-07-31T01:57:49;3.88;;;2.40;;
49858;SDS011;35756;52.346;13.622;2023-07-31T02:00:15;5.03;;;2.35;;
49858;SDS011;35756;52.346;13.622;2023-07-31T02:02:40;5.63;;;2.42;;
49858;SDS011;35756;52.346;13.622;2023-07-31T02:05:05;5.07;;;2.60;;
49858;SDS011;35756;52.346;13.622;2023-07-31T02:07:31;5.80;;;2.63;;
49858;SDS011;35756;52.346;13.622;2023-07-31T02:09:56;7.20;;;2.95;;
49858;SDS011;35756;52.346;13.622;2023-07-31T02:12:21;3.83;;;2.60;;
49858;SDS011;35756;52.346;13.622;2023-07-31T02:14:47;3.47;;;2.50;;
49858;SDS011;35756;52.346;13.622;2023-07-31T02:17:12;4.28;;;2.33;;
49858;SDS011;35756;52.346;13.622;2023-07-31T02:19:37;6.32;;;2.75;;
49858;SDS011;35756;52.346;13.622;2023-07-31T02:22:03;3.65;;;2.10;;
49858;SDS011;35756;52.346;13.622;2023-07-31T02:24:28;6.32;;;3.03;;
49858;SDS011;35756;52.346;13.622;2023-07-31T02:26:53;3.50;;;2.70;;
49858;SDS011;35756;52.346;13.622;2023-07-31T02:29:18;3.88;;;2.80;;
49858;SDS011;35756;52.346;13.622;2023-07-31T02:31:44;4.75;;;2.80;;
49858;SDS011;35756;52.346;13.622;2023-07-31T02:34:09;4.40;;;2.78;;
49858;SDS011;35756;52.346;13.622;2023-07-31T02:36:34;3.80;;;2.55;;
49858;SDS011;35756;52.346;13.622;2023-07-31T02:39:00;4.35;;;2.72;;
49858;SDS011;35756;52.346;13.622;2023-07-31T02:41:25;4.45;;;2.67;;
49858;SDS011;35756;52.346;13.622;2023-07-31T02:43:50;5.10;;;3.00;;
49858;SDS011;35756;52.346;13.622;2023-07-31T02:46:16;5.20;;;2.78;;
49858;SDS011;35756;52.346;13.622;2023-07-31T02:48:41;4.18;;;2.90;;
49858;SDS011;35756;52.346;13.622;2023-07-31T02:51:06;6.43;;;2.70;;
49858;SDS011;35756;52.346;13.622;2023-07-31T02:53:31;3.95;;;2.78;;
49858;SDS011;35756;52.346;13.622;2023-07-31T02:55:57;7.55;;;3.50;;
49858;SDS011;35756;52.346;13.622;2023-07-31T02:58:22;4.68;;;3.20;;
49858;SDS011;35756;52.346;13.622;2023-07-31T03:00:47;5.35;;;3.20;;
49858;SDS011;35756;52.346;13.622;2023-07-31T03:03:13;4.18;;;2.72;;
49858;SDS011;35756;52.346;13.622;2023-07-31T03:05:38;8.25;;;3.15;;
49858;SDS011;35756;52.346;13.622;2023-07-31T03:08:03;7.32;;;3.60;;
49858;SDS011;35756;52.346;13.622;2023-07-31T03:10:29;9.02;;;3.00;;
49858;SDS011;35756;52.346;13.622;2023-07-31T03:12:54;5.72;;;2.85;;
49858;SDS011;35756;52.346;13.622;2023-07-31T03:15:19;4.90;;;2.65;;
49858;SDS011;35756;52.346;13.622;2023-07-31T03:17:44;3.88;;;2.53;;
49858;SDS011;35756;52.346;13.622;2023-07-31T03:20:10;4.97;;;3.10;;
49858;SDS011;35756;52.346;13.622;2023-07-31T03:22:35;3.85;;;2.83;;
49858;SDS011;35756;52.346;13.622;2023-07-31T03:25:01;8.02;;;2.92;;
49858;SDS011;35756;52.346;13.622;2023-07-31T03:27:27;4.85;;;2.63;;
49858;SDS011;35756;52.346;13.622;2023-07-31T03:29:52;4.15;;;2.95;;
49858;SDS011;35756;52.346;13.622;2023-07-31T03:32:18;3.97;;;2.33;;
49858;SDS011;35756;52.346;13.622;2023-07-31T03:34:43;3.50;;;2.50;;
49858;SDS011;35756;52.346;13.622;2023-07-31T03:37:08;4.15;;;2.70;;
49858;SDS011;35756;52.346;13.622;2023-07-31T03:39:34;5.97;;;3.17;;
49858;SDS011;35756;52.346;13.622;2023-07-31T03:41:59;5.28;;;2.88;;
49858;SDS011;35756;52.346;13.622;2023-07-31T03:44:25;5.88;;;2.83;;
49858;SDS011;35756;52.346;13.622;2023-07-31T03:46:50;3.70;;;2.47;;
49858;SDS011;35756;52.346;13.622;2023-07-31T03:49:15;6.28;;;2.60;;
49858;SDS011;35756;52.346;13.622;2023-07-31T03:51:41;4.25;;;2.72;;
49858;SDS011;35756;52.346;13.622;2023-07-31T03:54:06;4.82;;;3.05;;
49858;SDS011;35756;52.346;13.622;2023-07-31T03:56:32;6.80;;;3.22;;
49858;SDS011;35756;52.346;13.622;2023-07-31T03:58:58;5.07;;;2.80;;
49858;SDS011;35756;52.346;13.622;2023-07-31T04:01:23;3.03;;;2.60;;
49858;SDS011;35756;52.346;13.622;2023-07-31T04:03:48;7.25;;;3.08;;
49858;SDS011;35756;52.346;13.622;2023-07-31T04:06:13;3.05;;;2.30;;
49858;SDS011;35756;52.346;13.622;2023-07-31T04:08:42;4.43;;;2.50;;
49858;SDS011;35756;52.346;13.622;2023-07-31T04:11:08;3.67;;;2.60;;
49858;SDS011;35756;52.346;13.622;2023-07-31T04:13:33;5.28;;;2.20;;
49858;SDS011;35756;52.346;13.622;2023-07-31T04:15:58;4.55;;;2.83;;
49858;SDS011;35756;52.346;13.622;2023-07-31T04:18:24;3.95;;;2.50;;
49858;SDS011;35756;52.346;13.622;2023-07-31T04:20:50;4.68;;;2.10;;
49858;SDS011;35756;52.346;13.622;2023-07-31T04:23:15;4.78;;;2.53;;
49858;SDS011;35756;52.346;13.622;2023-07-31T04:25:40;3.33;;;2.20;;
49858;SDS011;35756;52.346;13.622;2023-07-31T04:28:05;3.15;;;2.03;;
49858;SDS011;35756;52.346;13.622;2023-07-31T04:30:31;6.38;;;2.30;;
49858;SDS011;35756;52.346;13.622;2023-07-31T04:32:56;3.85;;;2.25;;
49858;SDS011;35756;52.346;13.622;2023-07-31T04:35:21;3.42;;;2.45;;
49858;SDS011;35756;52.346;13.622;2023-07-31T04:37:47;4.60;;;2.30;;
49858;SDS011;35756;52.346;13.622;2023-07-31T04:40:13;3.92;;;2.25;;
49858;SDS011;35756;52.346;13.622;2023-07-31T04:42:39;6.57;;;3.42;;
49858;SDS011;35756;52.346;13.622;2023-07-31T04:45:04;8.07;;;2.47;;
49858;SDS011;35756;52.346;13.622;2023-07-31T04:47:30;7.15;;;2.58;;
49858;SDS011;35756;52.346;13.622;2023-07-31T04:49:55;5.25;;;2.70;;
49858;SDS011;35756;52.346;13.622;2023-07-31T04:52:21;5.07;;;2.47;;
49858;SDS011;35756;52.346;13.622;2023-07-31T04:54:46;4.00;;;2.10;;
49858;SDS011;35756;52.346;13.622;2023-07-31T04:57:11;5.55;;;2.50;;
49858;SDS011;35756;52.346;13.622;2023-07-31T04:59:36;3.95;;;2.38;;
49858;SDS011;35756;52.346;13.622;2023-07-31T05:02:02;4.28;;;2.55;;
49858;SDS011;35756;52.346;13.622;2023-07-31T05:04:27;2.97;;;2.05;;
49858;SDS011;35756;52.346;13.622;2023-07-31T05:06:52;3.65;;;2.00;;
49858;SDS011;35756;52.346;13.622;2023-07-31T05:09:18;5.68;;;2.45;;
49858;SDS011;35756;52.346;13.622;2023-07-31T05:11:43;3.53;;;2.33;;
49858;SDS011;35756;52.346;13.622;2023-07-31T05:14:08;4.20;;;2.50;;
49858;SDS011;35756;52.346;13.622;2023-07-31T05:16:34;7.63;;;2.50;;
49858;SDS011;35756;52.346;13.622;2023-07-31T05:18:59;7.18;;;2.58;;
49858;SDS011;35756;52.346;13.622;2023-07-31T05:21:24;5.25;;;2.40;;
49858;SDS011;35756;52.346;13.622;2023-07-31T05:23:50;3.72;;;2.30;;
49858;SDS011;35756;52.346;13.622;2023-07-31T05:26:15;4.10;;;2.20;;
49858;SDS011;35756;52.346;13.622;2023-07-31T05:28:40;3.38;;;2.03;;
49858;SDS011;35756;52.346;13.622;2023-07-31T05:31:06;4.28;;;2.45;;
49858;SDS011;35756;52.346;13.622;2023-07-31T05:33:31;6.32;;;2.13;;
49858;SDS011;35756;52.346;13.622;2023-07-31T05:35:57;5.47;;;2.38;;
49858;SDS011;35756;52.346;13.622;2023-07-31T05:38:22;4.93;;;2.33;;
49858;SDS011;35756;52.346;13.622;2023-07-31T05:40:48;4.30;;;2.08;;
49858;SDS011;35756;52.346;13.622;2023-07-31T05:43:13;3.15;;;2.42;;
49858;SDS011;35756;52.346;13.622;2023-07-31T05:45:39;3.15;;;2.10;;
49858;SDS011;35756;52.346;13.622;2023-07-31T05:48:05;4.18;;;2.20;;
49858;SDS011;35756;52.346;13.622;2023-07-31T05:50:30;5.15;;;2.08;;
49858;SDS011;35756;52.346;13.622;2023-07-31T05:52:55;4.78;;;2.28;;
49858;SDS011;35756;52.346;13.622;2023-07-31T05:55:21;3.95;;;2.47;;
49858;SDS011;35756;52.346;13.622;2023-07-31T05:57:46;3.17;;;2.00;;
49858;SDS011;35756;52.346;13.622;2023-07-31T06:00:12;4.13;;;2.13;;
49858;SDS011;35756;52.346;13.622;2023-07-31T06:02:38;5.10;;;2.30;;
49858;SDS011;35756;52.346;13.622;2023-07-31T06:05:03;7.80;;;2.70;;
49858;SDS011;35756;52.346;13.622;2023-07-31T06:07:30;4.30;;;2.30;;
49858;SDS011;35756;52.346;13.622;2023-07-31T06:09:56;3.33;;;1.98;;
49858;SDS011;35756;52.346;13.622;2023-07-31T06:12:22;4.50;;;2.38;;
49858;SDS011;35756;52.346;13.622;2023-07-31T06:14:47;4.20;;;2.40;;
49858;SDS011;35756;52.346;13.622;2023-07-31T06:17:13;3.15;;;2.00;;
49858;SDS011;35756;52.346;13.622;2023-07-31T06:19:38;4.40;;;2.30;;
49858;SDS011;35756;52.346;13.622;2023-07-31T06:22:03;7.03;;;2.85;;
49858;SDS011;35756;52.346;13.622;2023-07-31T06:24:29;3.30;;;2.15;;
49858;SDS011;35756;52.346;13.622;2023-07-31T06:26:54;5.05;;;2.33;;
49858;SDS011;35756;52.346;13.622;2023-07-31T06:29:20;4.68;;;2.25;;
49858;SDS011;35756;52.346;13.622;2023-07-31T06:31:45;5.40;;;2.22;;
49858;SDS011;35756;52.346;13.622;2023-07-31T06:34:10;2.78;;;1.98;;
49858;SDS011;35756;52.346;13.622;2023-07-31T06:36:36;6.13;;;2.40;;
49858;SDS011;35756;52.346;13.622;2023-07-31T06:39:01;4.07;;;2.30;;
49858;SDS011;35756;52.346;13.622;2023-07-31T06:41:26;4.13;;;2.40;;
49858;SDS011;35756;52.346;13.622;2023-07-31T06:43:51;3.65;;;2.20;;
49858;SDS011;35756;52.346;13.622;2023-07-31T06:46:17;4.70;;;2.60;;
49858;SDS011;35756;52.346;13.622;2023-07-31T06:48:42;4.47;;;2.40;;
49858;SDS011;35756;52.346;13.622;2023-07-31T06:51:07;3.22;;;2.22;;
49858;SDS011;35756;52.346;13.622;2023-07-31T06:53:33;6.60;;;2.53;;
49858;SDS011;35756;52.346;13.622;2023-07-31T06:55:58;3.03;;;2.08;;
49858;SDS011;35756;52.346;13.622;2023-07-31T06:58:23;4.13;;;2.58;;
49858;SDS011;35756;52.346;13.622;2023-07-31T07:00:48;3.63;;;2.15;;
49858;SDS011;35756;52.346;13.622;2023-07-31T07:03:14;5.10;;;2.40;;
49858;SDS011;35756;52.346;13.622;2023-07-31T07:05:41;3.58;;;1.98;;
49858;SDS011;35756;52.346;13.622;2023-07-31T07:08:06;3.50;;;2.38;;
49858;SDS011;35756;52.346;13.622;2023-07-31T07:10:31;6.47;;;2.40;;
49858;SDS011;35756;52.346;13.622;2023-07-31T07:12:56;4.85;;;1.95;;
49858;SDS011;35756;52.346;13.622;2023-07-31T07:15:22;6.10;;;2.40;;
49858;SDS011;35756;52.346;13.622;2023-07-31T07:17:47;3.95;;;2.17;;
49858;SDS011;35756;52.346;13.622;2023-07-31T07:20:12;4.05;;;2.40;;
49858;SDS011;35756;52.346;13.622;2023-07-31T07:22:38;7.32;;;2.70;;
49858;SDS011;35756;52.346;13.622;2023-07-31T07:25:03;4.22;;;2.25;;
49858;SDS011;35756;52.346;13.622;2023-07-31T07:27:29;4.32;;;1.92;;
49858;SDS011;35756;52.346;13.622;2023-07-31T07:29:55;3.67;;;2.22;;
49858;SDS011;35756;52.346;13.622;2023-07-31T07:32:20;3.97;;;2.20;;
49858;SDS011;35756;52.346;13.622;2023-07-31T07:34:47;5.50;;;1.95;;
49858;SDS011;35756;52.346;13.622;2023-07-31T07:37:12;4.53;;;2.05;;
49858;SDS011;35756;52.346;13.622;2023-07-31T07:39:38;6.40;;;2.20;;
49858;SDS011;35756;52.346;13.622;2023-07-31T07:42:03;3.90;;;2.22;;
49858;SDS011;35756;52.346;13.622;2023-07-31T07:44:28;6.45;;;2.50;;
49858;SDS011;35756;52.346;13.622;2023-07-31T07:46:53;5.68;;;2.60;;
49858;SDS011;35756;52.346;13.622;2023-07-31T07:49:19;3.53;;;2.63;;
49858;SDS011;35756;52.346;13.622;2023-07-31T07:51:44;7.80;;;2.30;;
49858;SDS011;35756;52.346;13.622;2023-07-31T07:54:09;7.63;;;2.33;;
49858;SDS011;35756;52.346;13.622;2023-07-31T07:56:35;4.40;;;2.40;;
49858;SDS011;35756;52.346;13.622;2023-07-31T07:59:01;3.45;;;2.00;;
49858;SDS011;35756;52.346;13.622;2023-07-31T08:01:26;3.22;;;2.42;;
49858;SDS011;35756;52.346;13.622;2023-07-31T08:03:51;6.75;;;2.40;;
49858;SDS011;35756;52.346;13.622;2023-07-31T08:06:17;4.07;;;1.95;;
49858;SDS011;35756;52.346;13.622;2023-07-31T08:08:42;3.33;;;2.00;;
49858;SDS011;35756;52.346;13.622;2023-07-31T08:11:07;4.63;;;2.35;;
49858;SDS011;35756;52.346;13.622;2023-07-31T08:13:33;4.40;;;2.33;;
49858;SDS011;35756;52.346;13.622;2023-07-31T08:15:58;4.85;;;2.47;;
49858;SDS011;35756;52.346;13.622;2023-07-31T08:18:23;4.93;;;2.50;;
49858;SDS011;35756;52.346;13.622;2023-07-31T08:20:49;5.22;;;2.45;;
49858;SDS011;35756;52.346;13.622;2023-07-31T08:23:14;4.60;;;2.35;;
49858;SDS011;35756;52.346;13.622;2023-07-31T08:25:39;4.65;;;2.22;;
49858;SDS011;35756;52.346;13.622;2023-07-31T08:28:05;2.95;;;2.20;;
49858;SDS011;35756;52.346;13.622;2023-07-31T08:30:31;4.90;;;2.47;;
49858;SDS011;35756;52.346;13.622;2023-07-31T08:32:56;5.50;;;2.83;;
49858;SDS011;35756;52.346;13.622;2023-07-31T08:35:22;3.65;;;2.55;;
49858;SDS011;35756;52.346;13.622;2023-07-31T08:37:47;4.55;;;2.20;;
49858;SDS011;35756;52.346;13.622;2023-07-31T08:40:12;3.60;;;2.30;;
49858;SDS011;35756;52.346;13.622;2023-07-31T08:42:48;4.85;;;2.45;;
49858;SDS011;35756;52.346;13.622;2023-07-31T08:45:15;2.85;;;2.15;;
49858;SDS011;35756;52.346;13.622;2023-07-31T08:47:45;5.68;;;2.50;;
49858;SDS011;35756;52.346;13.622;2023-07-31T08:50:16;4.30;;;2.38;;
49858;SDS011;35756;52.346;13.622;2023-07-31T08:52:42;4.68;;;2.47;;
49858;SDS011;35756;52.346;13.622;2023-07-31T08:55:08;4.28;;;2.38;;
49858;SDS011;35756;52.346;13.622;2023-07-31T08:57:34;4.63;;;2.40;;
49858;SDS011;35756;52.346;13.622;2023-07-31T09:00:00;4.35;;;2.28;;
49858;SDS011;35756;52.346;13.622;2023-07-31T09:02:28;4.05;;;2.00;;
49858;SDS011;35756;52.346;13.622;2023-07-31T09:04:56;4.45;;;2.10;;
49858;SDS011;35756;52.346;13.622;2023-07-31T09:07:22;3.65;;;2.40;;
49858;SDS011;35756;52.346;13.622;2023-07-31T09:09:48;2.30;;;1.40;;
49858;SDS011;35756;52.346;13.622;2023-07-31T09:12:13;5.25;;;2.00;;
49858;SDS011;35756;52.346;13.622;2023-07-31T09:14:38;2.45;;;1.65;;
49858;SDS011;35756;52.346;13.622;2023-07-31T09:17:04;2.95;;;1.80;;
49858;SDS011;35756;52.346;13.622;2023-07-31T09:19:32;2.15;;;1.38;;
49858;SDS011;35756;52.346;13.622;2023-07-31T09:21:59;4.30;;;1.77;;
49858;SDS011;35756;52.346;13.622;2023-07-31T09:24:28;2.03;;;1.27;;
49858;SDS011;35756;52.346;13.622;2023-07-31T09:26:55;2.17;;;1.60;;
49858;SDS011;35756;52.346;13.622;2023-07-31T09:29:21;1.65;;;1.23;;
49858;SDS011;35756;52.346;13.622;2023-07-31T09:31:46;1.40;;;1.10;;
49858;SDS011;35756;52.346;13.622;2023-07-31T09:34:12;2.38;;;1.15;;
49858;SDS011;35756;52.346;13.622;2023-07-31T09:36:42;1.27;;;1.00;;
49858;SDS011;35756;52.346;13.622;2023-07-31T09:39:09;1.00;;;0.80;;
49858;SDS011;35756;52.346;13.622;2023-07-31T09:41:36;2.42;;;1.02;;
49858;SDS011;35756;52.346;13.622;2023-07-31T09:44:04;1.42;;;1.13;;
49858;SDS011;35756;52.346;13.622;2023-07-31T09:46:30;2.00;;;1.50;;
49858;SDS011;35756;52.346;13.622;2023-07-31T09:49:11;2.03;;;1.55;;
49858;SDS011;35756;52.346;13.622;2023-07-31T09:51:38;2.15;;;1.42;;
49858;SDS011;35756;52.346;13.622;2023-07-31T09:54:16;3.03;;;1.80;;
49858;SDS011;35756;52.346;13.622;2023-07-31T09:56:42;4.13;;;1.70;;
49858;SDS011;35756;52.346;13.622;2023-07-31T09:59:10;3.42;;;1.90;;
49858;SDS011;35756;52.346;13.622;2023-07-31T10:01:37;2.70;;;1.92;;
49858;SDS011;35756;52.346;13.622;2023-07-31T10:04:02;3.83;;;2.22;;
49858;SDS011;35756;52.346;13.622;2023-07-31T10:06:29;3.25;;;1.88;;
49858;SDS011;35756;52.346;13.622;2023-07-31T10:08:54;4.10;;;2.50;;
49858;SDS011;35756;52.346;13.622;2023-07-31T10:11:20;4.63;;;2.35;;
49858;SDS011;35756;52.346;13.622;2023-07-31T10:13:46;5.63;;;2.90;;
49858;SDS011;35756;52.346;13.622;2023-07-31T10:16:11;4.55;;;2.53;;
49858;SDS011;35756;52.346;13.622;2023-07-31T10:18:37;5.28;;;2.97;;
49858;SDS011;35756;52.346;13.622;2023-07-31T10:21:03;5.88;;;2.60;;
49858;SDS011;35756;52.346;13.622;2023-07-31T10:23:29;5.47;;;2.58;;
49858;SDS011;35756;52.346;13.622;2023-07-31T10:25:55;5.70;;;2.47;;
49858;SDS011;35756;52.346;13.622;2023-07-31T10:28:22;5.13;;;2.35;;
49858;SDS011;35756;52.346;13.622;2023-07-31T10:30:47;10.38;;;3.42;;
49858;SDS011;35756;52.346;13.622;2023-07-31T10:33:14;4.57;;;2.75;;
49858;SDS011;35756;52.346;13.622;2023-07-31T10:35:40;5.85;;;3.03;;
49858;SDS011;35756;52.346;13.622;2023-07-31T10:38:11;3.17;;;2.20;;
49858;SDS011;35756;52.346;13.622;2023-07-31T10:40:37;4.80;;;2.67;;
49858;SDS011;35756;52.346;13.622;2023-07-31T10:43:02;4.47;;;2.53;;
49858;SDS011;35756;52.346;13.622;2023-07-31T10:45:32;6.38;;;2.70;;
49858;SDS011;35756;52.346;13.622;2023-07-31T10:48:19;5.50;;;2.63;;
49858;SDS011;35756;52.346;13.622;2023-07-31T10:50:48;5.03;;;2.60;;
49858;SDS011;35756;52.346;13.622;2023-07-31T10:53:36;8.75;;;2.38;;
49858;SDS011;35756;52.346;13.622;2023-07-31T10:56:01;4.70;;;2.40;;
49858;SDS011;35756;52.346;13.622;2023-07-31T10:58:30;6.18;;;2.83;;
49858;SDS011;35756;52.346;13.622;2023-07-31T11:01:00;6.72;;;2.50;;
49858;SDS011;35756;52.346;13.622;2023-07-31T11:03:41;3.53;;;2.30;;
49858;SDS011;35756;52.346;13.622;2023-07-31T11:06:08;3.95;;;2.40;;
49858;SDS011;35756;52.346;13.622;2023-07-31T11:08:34;3.65;;;2.10;;
49858;SDS011;35756;52.346;13.622;2023-07-31T11:13:28;4.07;;;2.50;;
49858;SDS011;35756;52.346;13.622;2023-07-31T11:15:54;4.90;;;2.22;;
49858;SDS011;35756;52.346;13.622;2023-07-31T11:18:19;4.88;;;2.30;;
49858;SDS011;35756;52.346;13.622;2023-07-31T11:20:45;4.72;;;2.25;;
49858;SDS011;35756;52.346;13.622;2023-07-31T11:23:10;3.00;;;2.13;;
49858;SDS011;35756;52.346;13.622;2023-07-31T11:25:36;3.65;;;2.10;;
49858;SDS011;35756;52.346;13.622;2023-07-31T11:28:06;6.43;;;1.92;;
49858;SDS011;35756;52.346;13.622;2023-07-31T11:30:33;3.38;;;2.00;;
49858;SDS011;35756;52.346;13.622;2023-07-31T11:33:00;4.70;;;2.50;;
49858;SDS011;35756;52.346;13.622;2023-07-31T11:35:28;5.07;;;2.17;;
49858;SDS011;35756;52.346;13.622;2023-07-31T11:37:53;4.18;;;1.98;;
49858;SDS011;35756;52.346;13.622;2023-07-31T11:40:18;4.03;;;2.30;;
49858;SDS011;35756;52.346;13.622;2023-07-31T11:42:44;4.57;;;2.22;;
49858;SDS011;35756;52.346;13.622;2023-07-31T11:45:10;4.40;;;2.42;;
49858;SDS011;35756;52.346;13.622;2023-07-31T11:47:36;3.72;;;2.15;;
49858;SDS011;35756;52.346;13.622;2023-07-31T11:50:02;3.10;;;2.00;;
49858;SDS011;35756;52.346;13.622;2023-07-31T11:52:29;3.80;;;2.15;;
49858;SDS011;35756;52.346;13.622;2023-07-31T11:54:55;7.18;;;2.47;;
49858;SDS011;35756;52.346;13.622;2023-07-31T11:57:21;3.45;;;2.00;;
49858;SDS011;35756;52.346;13.622;2023-07-31T11:59:47;3.70;;;1.83;;
49858;SDS011;35756;52.346;13.622;2023-07-31T12:02:13;2.90;;;1.70;;
49858;SDS011;35756;52.346;13.622;2023-07-31T12:04:38;2.97;;;2.13;;
49858;SDS011;35756;52.346;13.622;2023-07-31T12:07:03;3.88;;;1.98;;
49858;SDS011;35756;52.346;13.622;2023-07-31T12:09:29;3.38;;;2.00;;
49858;SDS011;35756;52.346;13.622;2023-07-31T12:11:54;3.55;;;2.17;;
49858;SDS011;35756;52.346;13.622;2023-07-31T12:14:26;3.92;;;2.13;;
49858;SDS011;35756;52.346;13.622;2023-07-31T12:16:54;5.43;;;2.47;;
49858;SDS011;35756;52.346;13.622;2023-07-31T12:19:20;3.63;;;2.10;;
49858;SDS011;35756;52.346;13.622;2023-07-31T12:21:45;3.97;;;2.35;;
49858;SDS011;35756;52.346;13.622;2023-07-31T12:24:11;8.20;;;1.90;;
49858;SDS011;35756;52.346;13.622;2023-07-31T12:26:36;2.97;;;1.90;;
49858;SDS011;35756;52.346;13.622;2023-07-31T12:29:01;3.58;;;2.13;;
49858;SDS011;35756;52.346;13.622;2023-07-31T12:31:27;3.50;;;1.90;;
49858;SDS011;35756;52.346;13.622;2023-07-31T12:33:53;2.97;;;2.00;;
49858;SDS011;35756;52.346;13.622;2023-07-31T12:36:22;3.10;;;1.52;;
49858;SDS011;35756;52.346;13.622;2023-07-31T12:38:52;2.83;;;1.40;;
49858;SDS011;35756;52.346;13.622;2023-07-31T12:41:17;1.35;;;1.25;;
49858;SDS011;35756;52.346;13.622;2023-07-31T12:43:43;2.88;;;1.48;;
49858;SDS011;35756;52.346;13.622;2023-07-31T12:46:09;2.80;;;1.73;;
49858;SDS011;35756;52.346;13.622;2023-07-31T12:48:35;4.38;;;1.65;;
49858;SDS011;35756;52.346;13.622;2023-07-31T12:51:01;2.03;;;1.55;;
49858;SDS011;35756;52.346;13.622;2023-07-31T12:53:26;3.97;;;1.70;;
49858;SDS011;35756;52.346;13.622;2023-07-31T12:55:52;3.03;;;1.95;;
49858;SDS011;35756;52.346;13.622;2023-07-31T12:58:17;2.47;;;1.60;;
49858;SDS011;35756;52.346;13.622;2023-07-31T13:00:42;3.10;;;1.77;;
49858;SDS011;35756;52.346;13.622;2023-07-31T13:03:08;3.35;;;2.10;;
49858;SDS011;35756;52.346;13.622;2023-07-31T13:05:33;3.72;;;2.03;;
49858;SDS011;35756;52.346;13.622;2023-07-31T13:07:58;3.45;;;1.60;;
49858;SDS011;35756;52.346;13.622;2023-07-31T13:10:24;3.00;;;1.77;;
49858;SDS011;35756;52.346;13.622;2023-07-31T13:12:50;3.58;;;1.95;;
49858;SDS011;35756;52.346;13.622;2023-07-31T13:15:16;3.67;;;2.22;;
49858;SDS011;35756;52.346;13.622;2023-07-31T13:17:41;3.10;;;1.90;;
49858;SDS011;35756;52.346;13.622;2023-07-31T13:20:06;3.70;;;2.00;;
49858;SDS011;35756;52.346;13.622;2023-07-31T13:22:32;3.65;;;2.15;;
49858;SDS011;35756;52.346;13.622;2023-07-31T13:24:57;3.17;;;1.95;;
49858;SDS011;35756;52.346;13.622;2023-07-31T13:27:23;3.75;;;2.28;;
49858;SDS011;35756;52.346;13.622;2023-07-31T13:29:49;3.42;;;2.03;;
49858;SDS011;35756;52.346;13.622;2023-07-31T13:32:15;6.97;;;2.28;;
49858;SDS011;35756;52.346;13.622;2023-07-31T13:34:41;3.70;;;2.22;;
49858;SDS011;35756;52.346;13.622;2023-07-31T13:37:06;3.72;;;2.03;;
49858;SDS011;35756;52.346;13.622;2023-07-31T13:39:32;5.15;;;2.10;;
49858;SDS011;35756;52.346;13.622;2023-07-31T13:41:58;3.13;;;1.90;;
49858;SDS011;35756;52.346;13.622;2023-07-31T13:44:23;3.58;;;2.30;;
49858;SDS011;35756;52.346;13.622;2023-07-31T13:46:48;3.63;;;2.08;;
49858;SDS011;35756;52.346;13.622;2023-07-31T13:49:14;3.35;;;2.00;;
49858;SDS011;35756;52.346;13.622;2023-07-31T13:51:39;3.53;;;2.15;;
49858;SDS011;35756;52.346;13.622;2023-07-31T13:54:04;3.92;;;2.28;;
49858;SDS011;35756;52.346;13.622;2023-07-31T13:56:31;4.50;;;2.10;;
49858;SDS011;35756;52.346;13.622;2023-07-31T13:58:56;3.00;;;2.10;;
49858;SDS011;35756;52.346;13.622;2023-07-31T14:01:21;5.15;;;2.05;;
49858;SDS011;35756;52.346;13.622;2023-07-31T14:03:47;5.28;;;2.38;;
49858;SDS011;35756;52.346;13.622;2023-07-31T14:06:12;5.60;;;2.22;;
49858;SDS011;35756;52.346;13.622;2023-07-31T14:08:37;5.43;;;2.40;;
49858;SDS011;35756;52.346;13.622;2023-07-31T14:11:03;4.10;;;2.33;;
49858;SDS011;35756;52.346;13.622;2023-07-31T14:13:28;4.63;;;1.85;;
49858;SDS011;35756;52.346;13.622;2023-07-31T14:15:53;4.63;;;2.33;;
49858;SDS011;35756;52.346;13.622;2023-07-31T14:18:18;4.20;;;2.20;;
49858;SDS011;35756;52.346;13.622;2023-07-31T14:20:44;3.78;;;2.72;;
49858;SDS011;35756;52.346;13.622;2023-07-31T14:23:09;4.70;;;2.30;;
49858;SDS011;35756;52.346;13.622;2023-07-31T14:25:34;4.45;;;2.10;;
49858;SDS011;35756;52.346;13.622;2023-07-31T14:28:00;4.00;;;2.47;;
49858;SDS011;35756;52.346;13.622;2023-07-31T14:30:25;3.20;;;2.05;;
49858;SDS011;35756;52.346;13.622;2023-07-31T14:32:50;7.15;;;2.85;;
49858;SDS011;35756;52.346;13.622;2023-07-31T14:35:15;10.52;;;2.47;;
49858;SDS011;35756;52.346;13.622;2023-07-31T14:37:42;4.15;;;2.42;;